sensor_id;sensor_type;location;lat;lon;timestamp;P1;durP1;ratioP1;P2;durP2;ratioP2
54561;SDS011;69047;53.358;-1.486;2023-06-19T00:01:46;8.25;;;3.53;;
54561;SDS011;69047;53.358;-1.486;2023-06-19T00:04:11;9.43;;;3.60;;
54561;SDS011;69047;53.358;-1.486;2023-06-19T00:06:36;7.85;;;3.25;;
54561;SDS011;69047;53.358;-1.486;2023-06-19T00:09:02;5.70;;;3.38;;
54561;SDS011;69047;53.358;-1.486;2023-06-19T00:11:28;6.28;;;3.42;;
54561;SDS011;69047;53.358;-1.486;2023-06-19T00:13:53;5.95;;;3.00;;
54561;SDS011;69047;53.358;-1.486;2023-06-19T00:16:19;10.15;;;3.17;;
54561;SDS011;69047;53.358;-1.486;2023-06-19T00:18:44;4.22;;;3.08;;
54561;SDS011;69047;53.358;-1.486;2023-06-19T00:21:10;5.05;;;3.17;;
54561;SDS011;69047;53.358;-1.486;2023-06-19T00:23:36;7.43;;;3.25;;
54561;SDS011;69047;53.358;-1.486;2023-06-19T00:26:01;5.50;;;3.05;;
54561;SDS011;69047;53.358;-1.486;2023-06-19T00:28:27;8.32;;;3.63;;
54561;SDS011;69047;53.358;-1.486;2023-06-19T00:30:53;4.80;;;3.10;;
54561;SDS011;69047;53.358;-1.486;2023-06-19T00:33:19;7.57;;;3.50;;
54561;SDS011;69047;53.358;-1.486;2023-06-19T00:35:44;6.63;;;3.00;;
54561;SDS011;69047;53.358;-1.486;2023-06-19T00:38:09;11.98;;;3.83;;
54561;SDS011;69047;53.358;-1.486;2023-06-19T00:40:35;4.57;;;3.13;;
54561;SDS011;69047;53.358;-1.486;2023-06-19T00:43:01;5.50;;;3.10;;
54561;SDS011;69047;53.358;-1.486;2023-06-19T00:45:26;6.13;;;2.72;;
54561;SDS011;69047;53.358;-1.486;2023-06-19T00:47:53;8.60;;;3.10;;
54561;SDS011;69047;53.358;-1.486;2023-06-19T00:50:19;6.85;;;3.50;;
54561;SDS011;69047;53.358;-1.486;2023-06-19T00:52:45;4.80;;;3.47;;
54561;SDS011;69047;53.358;-1.486;2023-06-19T00:55:11;7.15;;;3.53;;
54561;SDS011;69047;53.358;-1.486;2023-06-19T00:57:37;5.68;;;3.03;;
54561;SDS011;69047;53.358;-1.486;2023-06-19T01:00:04;4.90;;;2.80;;
54561;SDS011;69047;53.358;-1.486;2023-06-19T01:02:31;4.55;;;2.88;;
54561;SDS011;69047;53.358;-1.486;2023-06-19T01:04:57;4.95;;;3.03;;
54561;SDS011;69047;53.358;-1.486;2023-06-19T01:07:25;5.03;;;2.92;;
54561;SDS011;69047;53.358;-1.486;2023-06-19T01:09:57;3.80;;;2.80;;
54561;SDS011;69047;53.358;-1.486;2023-06-19T01:12:40;4.57;;;2.90;;
54561;SDS011;69047;53.358;-1.486;2023-06-19T01:15:13;5.22;;;2.72;;
54561;SDS011;69047;53.358;-1.486;2023-06-19T01:17:38;4.70;;;3.00;;
54561;SDS011;69047;53.358;-1.486;2023-06-19T01:20:04;4.72;;;3.10;;
54561;SDS011;69047;53.358;-1.486;2023-06-19T01:22:35;5.65;;;2.85;;
54561;SDS011;69047;53.358;-1.486;2023-06-19T01:25:01;3.42;;;2.63;;
54561;SDS011;69047;53.358;-1.486;2023-06-19T01:27:26;4.28;;;3.00;;
54561;SDS011;69047;53.358;-1.486;2023-06-19T01:29:55;5.65;;;3.08;;
54561;SDS011;69047;53.358;-1.486;2023-06-19T01:35:13;3.95;;;2.97;;
54561;SDS011;69047;53.358;-1.486;2023-06-19T01:37:41;4.65;;;3.28;;
54561;SDS011;69047;53.358;-1.486;2023-06-19T01:40:08;5.32;;;2.97;;
54561;SDS011;69047;53.358;-1.486;2023-06-19T01:42:34;6.40;;;2.97;;
54561;SDS011;69047;53.358;-1.486;2023-06-19T01:45:01;4.57;;;2.88;;
54561;SDS011;69047;53.358;-1.486;2023-06-19T01:47:28;3.38;;;2.88;;
54561;SDS011;69047;53.358;-1.486;2023-06-19T01:49:53;4.18;;;3.60;;
54561;SDS011;69047;53.358;-1.486;2023-06-19T01:52:18;4.50;;;2.80;;
54561;SDS011;69047;53.358;-1.486;2023-06-19T01:54:44;5.10;;;3.30;;
54561;SDS011;69047;53.358;-1.486;2023-06-19T01:57:09;4.15;;;2.80;;
54561;SDS011;69047;53.358;-1.486;2023-06-19T01:59:36;4.70;;;2.67;;
54561;SDS011;69047;53.358;-1.486;2023-06-19T02:02:01;3.55;;;2.78;;
54561;SDS011;69047;53.358;-1.486;2023-06-19T02:04:28;6.18;;;3.17;;
54561;SDS011;69047;53.358;-1.486;2023-06-19T02:06:54;6.32;;;3.40;;
54561;SDS011;69047;53.358;-1.486;2023-06-19T02:09:19;4.40;;;3.20;;
54561;SDS011;69047;53.358;-1.486;2023-06-19T02:11:45;4.53;;;2.97;;
54561;SDS011;69047;53.358;-1.486;2023-06-19T02:14:10;4.15;;;3.13;;
54561;SDS011;69047;53.358;-1.486;2023-06-19T02:16:36;3.45;;;3.05;;
54561;SDS011;69047;53.358;-1.486;2023-06-19T02:19:01;3.95;;;3.40;;
54561;SDS011;69047;53.358;-1.486;2023-06-19T02:21:27;3.97;;;2.55;;
54561;SDS011;69047;53.358;-1.486;2023-06-19T02:23:53;3.38;;;2.88;;
54561;SDS011;69047;53.358;-1.486;2023-06-19T02:26:19;3.63;;;2.90;;
54561;SDS011;69047;53.358;-1.486;2023-06-19T02:28:44;3.92;;;2.55;;
54561;SDS011;69047;53.358;-1.486;2023-06-19T02:31:09;3.60;;;2.92;;
54561;SDS011;69047;53.358;-1.486;2023-06-19T02:33:35;3.35;;;2.75;;
54561;SDS011;69047;53.358;-1.486;2023-06-19T02:36:00;3.40;;;2.58;;
54561;SDS011;69047;53.358;-1.486;2023-06-19T02:38:26;4.72;;;3.05;;
54561;SDS011;69047;53.358;-1.486;2023-06-19T02:40:54;4.88;;;3.25;;
54561;SDS011;69047;53.358;-1.486;2023-06-19T02:43:22;4.88;;;2.92;;
54561;SDS011;69047;53.358;-1.486;2023-06-19T02:45:47;5.13;;;3.13;;
54561;SDS011;69047;53.358;-1.486;2023-06-19T02:48:13;6.90;;;3.47;;
54561;SDS011;69047;53.358;-1.486;2023-06-19T02:50:38;5.50;;;3.42;;
54561;SDS011;69047;53.358;-1.486;2023-06-19T02:53:03;3.22;;;2.80;;
54561;SDS011;69047;53.358;-1.486;2023-06-19T02:55:29;5.00;;;3.03;;
54561;SDS011;69047;53.358;-1.486;2023-06-19T02:57:54;4.95;;;2.70;;
54561;SDS011;69047;53.358;-1.486;2023-06-19T03:00:20;3.97;;;3.17;;
54561;SDS011;69047;53.358;-1.486;2023-06-19T03:02:45;3.65;;;3.08;;
54561;SDS011;69047;53.358;-1.486;2023-06-19T03:05:13;3.67;;;3.17;;
54561;SDS011;69047;53.358;-1.486;2023-06-19T03:07:41;5.15;;;2.85;;
54561;SDS011;69047;53.358;-1.486;2023-06-19T03:10:06;4.93;;;2.92;;
54561;SDS011;69047;53.358;-1.486;2023-06-19T03:12:32;3.30;;;2.75;;
54561;SDS011;69047;53.358;-1.486;2023-06-19T03:14:57;4.07;;;3.10;;
54561;SDS011;69047;53.358;-1.486;2023-06-19T03:17:22;3.83;;;2.75;;
54561;SDS011;69047;53.358;-1.486;2023-06-19T03:19:48;3.58;;;3.03;;
54561;SDS011;69047;53.358;-1.486;2023-06-19T03:22:13;2.90;;;2.53;;
54561;SDS011;69047;53.358;-1.486;2023-06-19T03:24:38;3.53;;;2.67;;
54561;SDS011;69047;53.358;-1.486;2023-06-19T03:27:04;3.70;;;2.70;;
54561;SDS011;69047;53.358;-1.486;2023-06-19T03:29:30;3.72;;;2.58;;
54561;SDS011;69047;53.358;-1.486;2023-06-19T03:31:55;4.60;;;3.20;;
54561;SDS011;69047;53.358;-1.486;2023-06-19T03:34:20;3.40;;;2.67;;
54561;SDS011;69047;53.358;-1.486;2023-06-19T03:36:46;4.22;;;2.80;;
54561;SDS011;69047;53.358;-1.486;2023-06-19T03:39:11;3.78;;;2.92;;
54561;SDS011;69047;53.358;-1.486;2023-06-19T03:41:36;2.47;;;2.28;;
54561;SDS011;69047;53.358;-1.486;2023-06-19T03:44:02;2.97;;;2.67;;
54561;SDS011;69047;53.358;-1.486;2023-06-19T03:46:27;6.50;;;3.10;;
54561;SDS011;69047;53.358;-1.486;2023-06-19T03:48:52;6.43;;;2.60;;
54561;SDS011;69047;53.358;-1.486;2023-06-19T03:51:18;3.80;;;3.15;;
54561;SDS011;69047;53.358;-1.486;2023-06-19T03:53:44;2.83;;;2.42;;
54561;SDS011;69047;53.358;-1.486;2023-06-19T03:56:09;3.00;;;2.58;;
54561;SDS011;69047;53.358;-1.486;2023-06-19T03:58:35;6.93;;;2.42;;
54561;SDS011;69047;53.358;-1.486;2023-06-19T04:01:00;4.75;;;2.75;;
54561;SDS011;69047;53.358;-1.486;2023-06-19T04:03:25;3.03;;;2.28;;
54561;SDS011;69047;53.358;-1.486;2023-06-19T04:05:51;4.32;;;3.10;;
54561;SDS011;69047;53.358;-1.486;2023-06-19T04:08:16;3.70;;;3.03;;
54561;SDS011;69047;53.358;-1.486;2023-06-19T04:10:42;3.65;;;2.92;;
54561;SDS011;69047;53.358;-1.486;2023-06-19T04:13:07;4.28;;;2.33;;
54561;SDS011;69047;53.358;-1.486;2023-06-19T04:15:33;4.53;;;2.85;;
54561;SDS011;69047;53.358;-1.486;2023-06-19T04:17:59;4.25;;;3.00;;
54561;SDS011;69047;53.358;-1.486;2023-06-19T04:20:26;3.20;;;2.53;;
54561;SDS011;69047;53.358;-1.486;2023-06-19T04:22:51;3.03;;;2.38;;
54561;SDS011;69047;53.358;-1.486;2023-06-19T04:25:17;3.78;;;2.90;;
54561;SDS011;69047;53.358;-1.486;2023-06-19T04:27:43;3.40;;;2.65;;
54561;SDS011;69047;53.358;-1.486;2023-06-19T04:30:10;2.83;;;2.42;;
54561;SDS011;69047;53.358;-1.486;2023-06-19T04:32:37;3.72;;;2.80;;
54561;SDS011;69047;53.358;-1.486;2023-06-19T04:35:09;4.10;;;3.35;;
54561;SDS011;69047;53.358;-1.486;2023-06-19T04:37:35;4.32;;;3.20;;
54561;SDS011;69047;53.358;-1.486;2023-06-19T04:40:01;8.90;;;2.83;;
54561;SDS011;69047;53.358;-1.486;2023-06-19T04:42:26;4.32;;;3.13;;
54561;SDS011;69047;53.358;-1.486;2023-06-19T04:44:52;5.63;;;3.42;;
54561;SDS011;69047;53.358;-1.486;2023-06-19T04:47:19;7.85;;;2.97;;
54561;SDS011;69047;53.358;-1.486;2023-06-19T04:49:45;4.25;;;3.00;;
54561;SDS011;69047;53.358;-1.486;2023-06-19T04:52:11;5.95;;;3.70;;
54561;SDS011;69047;53.358;-1.486;2023-06-19T04:54:37;4.50;;;3.05;;
54561;SDS011;69047;53.358;-1.486;2023-06-19T04:57:03;4.75;;;2.90;;
54561;SDS011;69047;53.358;-1.486;2023-06-19T04:59:28;3.67;;;3.10;;
54561;SDS011;69047;53.358;-1.486;2023-06-19T05:01:55;3.40;;;2.70;;
54561;SDS011;69047;53.358;-1.486;2023-06-19T05:04:21;3.80;;;3.17;;
54561;SDS011;69047;53.358;-1.486;2023-06-19T05:06:47;6.40;;;3.20;;
54561;SDS011;69047;53.358;-1.486;2023-06-19T05:09:13;5.18;;;3.15;;
54561;SDS011;69047;53.358;-1.486;2023-06-19T05:11:38;5.40;;;2.70;;
54561;SDS011;69047;53.358;-1.486;2023-06-19T05:14:04;3.00;;;2.60;;
54561;SDS011;69047;53.358;-1.486;2023-06-19T05:16:29;3.53;;;2.90;;
54561;SDS011;69047;53.358;-1.486;2023-06-19T05:18:55;3.67;;;3.13;;
54561;SDS011;69047;53.358;-1.486;2023-06-19T05:21:20;4.65;;;2.70;;
54561;SDS011;69047;53.358;-1.486;2023-06-19T05:23:46;3.63;;;2.88;;
54561;SDS011;69047;53.358;-1.486;2023-06-19T05:26:25;5.50;;;3.05;;
54561;SDS011;69047;53.358;-1.486;2023-06-19T05:28:51;3.80;;;3.00;;
54561;SDS011;69047;53.358;-1.486;2023-06-19T05:31:17;7.60;;;3.35;;
54561;SDS011;69047;53.358;-1.486;2023-06-19T05:33:43;5.35;;;3.70;;
54561;SDS011;69047;53.358;-1.486;2023-06-19T05:36:09;3.90;;;2.88;;
54561;SDS011;69047;53.358;-1.486;2023-06-19T05:38:34;7.00;;;3.50;;
54561;SDS011;69047;53.358;-1.486;2023-06-19T05:40:59;7.93;;;4.30;;
54561;SDS011;69047;53.358;-1.486;2023-06-19T05:43:25;7.28;;;3.85;;
54561;SDS011;69047;53.358;-1.486;2023-06-19T05:45:51;8.00;;;3.70;;
54561;SDS011;69047;53.358;-1.486;2023-06-19T05:48:17;5.85;;;3.60;;
54561;SDS011;69047;53.358;-1.486;2023-06-19T05:50:43;11.00;;;3.50;;
54561;SDS011;69047;53.358;-1.486;2023-06-19T05:53:08;7.95;;;3.92;;
54561;SDS011;69047;53.358;-1.486;2023-06-19T05:55:33;5.40;;;3.17;;
54561;SDS011;69047;53.358;-1.486;2023-06-19T05:57:59;5.35;;;4.00;;
54561;SDS011;69047;53.358;-1.486;2023-06-19T06:00:24;9.50;;;4.28;;
54561;SDS011;69047;53.358;-1.486;2023-06-19T06:02:50;5.10;;;3.60;;
54561;SDS011;69047;53.358;-1.486;2023-06-19T06:05:18;5.63;;;4.00;;
54561;SDS011;69047;53.358;-1.486;2023-06-19T06:07:45;7.55;;;3.85;;
54561;SDS011;69047;53.358;-1.486;2023-06-19T06:10:11;9.77;;;4.05;;
54561;SDS011;69047;53.358;-1.486;2023-06-19T06:12:36;8.98;;;4.32;;
54561;SDS011;69047;53.358;-1.486;2023-06-19T06:15:03;5.43;;;3.92;;
54561;SDS011;69047;53.358;-1.486;2023-06-19T06:17:30;7.95;;;3.65;;
54561;SDS011;69047;53.358;-1.486;2023-06-19T06:19:56;9.13;;;3.55;;
54561;SDS011;69047;53.358;-1.486;2023-06-19T06:22:21;5.85;;;4.00;;
54561;SDS011;69047;53.358;-1.486;2023-06-19T06:24:46;5.47;;;3.10;;
54561;SDS011;69047;53.358;-1.486;2023-06-19T06:27:13;11.23;;;4.20;;
54561;SDS011;69047;53.358;-1.486;2023-06-19T06:29:38;7.80;;;3.45;;
54561;SDS011;69047;53.358;-1.486;2023-06-19T06:32:04;4.88;;;3.15;;
54561;SDS011;69047;53.358;-1.486;2023-06-19T06:34:31;5.82;;;3.97;;
54561;SDS011;69047;53.358;-1.486;2023-06-19T06:36:57;7.57;;;3.95;;
54561;SDS011;69047;53.358;-1.486;2023-06-19T06:39:23;6.90;;;3.83;;
54561;SDS011;69047;53.358;-1.486;2023-06-19T06:41:48;5.93;;;3.40;;
54561;SDS011;69047;53.358;-1.486;2023-06-19T06:44:13;13.43;;;4.25;;
54561;SDS011;69047;53.358;-1.486;2023-06-19T06:46:39;18.00;;;3.85;;
54561;SDS011;69047;53.358;-1.486;2023-06-19T06:49:04;12.15;;;3.80;;
54561;SDS011;69047;53.358;-1.486;2023-06-19T06:51:30;7.35;;;3.75;;
54561;SDS011;69047;53.358;-1.486;2023-06-19T06:53:55;5.95;;;3.30;;
54561;SDS011;69047;53.358;-1.486;2023-06-19T06:56:20;6.95;;;3.75;;
54561;SDS011;69047;53.358;-1.486;2023-06-19T06:58:46;7.05;;;3.70;;
54561;SDS011;69047;53.358;-1.486;2023-06-19T07:01:12;6.25;;;3.58;;
54561;SDS011;69047;53.358;-1.486;2023-06-19T07:03:37;10.65;;;3.45;;
54561;SDS011;69047;53.358;-1.486;2023-06-19T07:06:02;14.18;;;3.83;;
54561;SDS011;69047;53.358;-1.486;2023-06-19T07:08:28;10.00;;;3.28;;
54561;SDS011;69047;53.358;-1.486;2023-06-19T07:10:53;12.85;;;4.28;;
54561;SDS011;69047;53.358;-1.486;2023-06-19T07:13:19;9.00;;;3.88;;
54561;SDS011;69047;53.358;-1.486;2023-06-19T07:15:44;7.78;;;3.65;;
54561;SDS011;69047;53.358;-1.486;2023-06-19T07:18:10;6.35;;;3.55;;
54561;SDS011;69047;53.358;-1.486;2023-06-19T07:20:35;10.63;;;4.00;;
54561;SDS011;69047;53.358;-1.486;2023-06-19T07:23:00;9.05;;;3.90;;
54561;SDS011;69047;53.358;-1.486;2023-06-19T07:25:26;9.60;;;3.65;;
54561;SDS011;69047;53.358;-1.486;2023-06-19T07:27:52;10.95;;;4.22;;
54561;SDS011;69047;53.358;-1.486;2023-06-19T07:30:17;9.35;;;3.92;;
54561;SDS011;69047;53.358;-1.486;2023-06-19T07:32:43;6.13;;;4.15;;
54561;SDS011;69047;53.358;-1.486;2023-06-19T07:35:08;28.77;;;4.30;;
54561;SDS011;69047;53.358;-1.486;2023-06-19T07:37:34;9.30;;;4.40;;
54561;SDS011;69047;53.358;-1.486;2023-06-19T07:39:59;10.75;;;4.18;;
54561;SDS011;69047;53.358;-1.486;2023-06-19T07:42:25;7.60;;;3.65;;
54561;SDS011;69047;53.358;-1.486;2023-06-19T07:44:51;6.45;;;4.03;;
54561;SDS011;69047;53.358;-1.486;2023-06-19T07:47:16;5.20;;;3.60;;
54561;SDS011;69047;53.358;-1.486;2023-06-19T07:49:46;4.80;;;3.67;;
54561;SDS011;69047;53.358;-1.486;2023-06-19T07:52:11;9.15;;;4.00;;
54561;SDS011;69047;53.358;-1.486;2023-06-19T07:54:47;6.20;;;3.88;;
54561;SDS011;69047;53.358;-1.486;2023-06-19T07:57:16;9.50;;;3.83;;
54561;SDS011;69047;53.358;-1.486;2023-06-19T07:59:41;7.07;;;4.50;;
54561;SDS011;69047;53.358;-1.486;2023-06-19T08:02:07;9.73;;;3.80;;
54561;SDS011;69047;53.358;-1.486;2023-06-19T08:04:32;7.78;;;3.78;;
54561;SDS011;69047;53.358;-1.486;2023-06-19T08:06:57;6.40;;;3.95;;
54561;SDS011;69047;53.358;-1.486;2023-06-19T08:09:23;5.18;;;3.90;;
54561;SDS011;69047;53.358;-1.486;2023-06-19T08:11:48;7.05;;;3.90;;
54561;SDS011;69047;53.358;-1.486;2023-06-19T08:14:13;6.05;;;3.53;;
54561;SDS011;69047;53.358;-1.486;2023-06-19T08:16:39;5.63;;;3.42;;
54561;SDS011;69047;53.358;-1.486;2023-06-19T08:19:04;9.07;;;3.90;;
54561;SDS011;69047;53.358;-1.486;2023-06-19T08:21:29;5.75;;;3.50;;
54561;SDS011;69047;53.358;-1.486;2023-06-19T08:23:55;9.25;;;4.22;;
54561;SDS011;69047;53.358;-1.486;2023-06-19T08:26:20;10.48;;;4.20;;
54561;SDS011;69047;53.358;-1.486;2023-06-19T08:28:46;7.85;;;3.65;;
54561;SDS011;69047;53.358;-1.486;2023-06-19T08:31:11;8.68;;;4.07;;
54561;SDS011;69047;53.358;-1.486;2023-06-19T08:33:36;7.43;;;3.72;;
54561;SDS011;69047;53.358;-1.486;2023-06-19T08:36:02;4.90;;;3.58;;
54561;SDS011;69047;53.358;-1.486;2023-06-19T08:38:27;9.15;;;3.53;;
54561;SDS011;69047;53.358;-1.486;2023-06-19T08:40:53;8.35;;;4.00;;
54561;SDS011;69047;53.358;-1.486;2023-06-19T08:43:20;12.55;;;4.40;;
54561;SDS011;69047;53.358;-1.486;2023-06-19T08:45:52;7.50;;;4.00;;
54561;SDS011;69047;53.358;-1.486;2023-06-19T08:48:21;8.43;;;4.20;;
54561;SDS011;69047;53.358;-1.486;2023-06-19T08:50:46;9.55;;;3.92;;
54561;SDS011;69047;53.358;-1.486;2023-06-19T08:53:11;6.70;;;3.65;;
54561;SDS011;69047;53.358;-1.486;2023-06-19T08:55:37;9.43;;;3.58;;
54561;SDS011;69047;53.358;-1.486;2023-06-19T08:58:02;5.85;;;3.88;;
54561;SDS011;69047;53.358;-1.486;2023-06-19T09:00:28;6.82;;;3.65;;
54561;SDS011;69047;53.358;-1.486;2023-06-19T09:03:01;6.22;;;3.60;;
54561;SDS011;69047;53.358;-1.486;2023-06-19T09:05:28;6.82;;;3.60;;
54561;SDS011;69047;53.358;-1.486;2023-06-19T09:07:57;8.75;;;3.85;;
54561;SDS011;69047;53.358;-1.486;2023-06-19T09:10:25;7.85;;;4.00;;
54561;SDS011;69047;53.358;-1.486;2023-06-19T09:12:58;5.95;;;3.75;;
54561;SDS011;69047;53.358;-1.486;2023-06-19T09:15:27;13.88;;;3.60;;
54561;SDS011;69047;53.358;-1.486;2023-06-19T09:18:06;7.43;;;3.83;;
54561;SDS011;69047;53.358;-1.486;2023-06-19T09:20:33;7.57;;;3.63;;
54561;SDS011;69047;53.358;-1.486;2023-06-19T09:23:03;13.52;;;4.13;;
54561;SDS011;69047;53.358;-1.486;2023-06-19T09:25:29;6.10;;;3.47;;
54561;SDS011;69047;53.358;-1.486;2023-06-19T09:27:54;7.45;;;3.72;;
54561;SDS011;69047;53.358;-1.486;2023-06-19T09:30:20;8.63;;;3.88;;
54561;SDS011;69047;53.358;-1.486;2023-06-19T09:32:46;8.15;;;4.13;;
54561;SDS011;69047;53.358;-1.486;2023-06-19T09:35:11;7.38;;;3.60;;
54561;SDS011;69047;53.358;-1.486;2023-06-19T09:37:38;8.23;;;4.25;;
54561;SDS011;69047;53.358;-1.486;2023-06-19T09:40:05;9.75;;;4.00;;
54561;SDS011;69047;53.358;-1.486;2023-06-19T09:42:37;5.60;;;3.20;;
54561;SDS011;69047;53.358;-1.486;2023-06-19T09:45:04;7.25;;;3.33;;
54561;SDS011;69047;53.358;-1.486;2023-06-19T09:47:31;6.80;;;3.67;;
54561;SDS011;69047;53.358;-1.486;2023-06-19T09:50:00;4.75;;;3.15;;
54561;SDS011;69047;53.358;-1.486;2023-06-19T09:52:26;5.35;;;3.40;;
54561;SDS011;69047;53.358;-1.486;2023-06-19T09:54:53;6.30;;;3.65;;
54561;SDS011;69047;53.358;-1.486;2023-06-19T09:57:19;6.65;;;3.45;;
54561;SDS011;69047;53.358;-1.486;2023-06-19T09:59:46;6.60;;;3.47;;
54561;SDS011;69047;53.358;-1.486;2023-06-19T10:02:14;8.82;;;3.20;;
54561;SDS011;69047;53.358;-1.486;2023-06-19T10:04:53;7.47;;;3.05;;
54561;SDS011;69047;53.358;-1.486;2023-06-19T10:07:24;9.60;;;3.17;;
54561;SDS011;69047;53.358;-1.486;2023-06-19T10:12:33;6.65;;;3.30;;
54561;SDS011;69047;53.358;-1.486;2023-06-19T10:15:29;11.75;;;4.00;;
54561;SDS011;69047;53.358;-1.486;2023-06-19T10:18:03;7.35;;;3.17;;
54561;SDS011;69047;53.358;-1.486;2023-06-19T10:20:33;5.75;;;3.67;;
54561;SDS011;69047;53.358;-1.486;2023-06-19T10:23:06;9.82;;;3.60;;
54561;SDS011;69047;53.358;-1.486;2023-06-19T10:25:40;6.70;;;3.45;;
54561;SDS011;69047;53.358;-1.486;2023-06-19T10:28:20;8.25;;;4.07;;
54561;SDS011;69047;53.358;-1.486;2023-06-19T10:30:57;8.80;;;3.67;;
54561;SDS011;69047;53.358;-1.486;2023-06-19T10:33:31;6.37;;;3.90;;
54561;SDS011;69047;53.358;-1.486;2023-06-19T10:35:58;11.88;;;4.47;;
54561;SDS011;69047;53.358;-1.486;2023-06-19T10:38:27;8.38;;;4.10;;
54561;SDS011;69047;53.358;-1.486;2023-06-19T10:40:53;9.75;;;4.63;;
54561;SDS011;69047;53.358;-1.486;2023-06-19T10:43:22;9.05;;;4.30;;
54561;SDS011;69047;53.358;-1.486;2023-06-19T10:45:50;6.20;;;4.53;;
54561;SDS011;69047;53.358;-1.486;2023-06-19T10:48:22;9.90;;;4.53;;
54561;SDS011;69047;53.358;-1.486;2023-06-19T10:50:49;10.77;;;4.68;;
54561;SDS011;69047;53.358;-1.486;2023-06-19T10:53:24;15.30;;;5.32;;
54561;SDS011;69047;53.358;-1.486;2023-06-19T10:55:54;7.00;;;4.22;;
54561;SDS011;69047;53.358;-1.486;2023-06-19T10:58:21;8.82;;;4.40;;
54561;SDS011;69047;53.358;-1.486;2023-06-19T11:00:46;14.68;;;5.57;;
54561;SDS011;69047;53.358;-1.486;2023-06-19T11:03:11;12.55;;;5.20;;
54561;SDS011;69047;53.358;-1.486;2023-06-19T11:05:37;16.20;;;4.97;;
54561;SDS011;69047;53.358;-1.486;2023-06-19T11:08:09;9.55;;;5.00;;
54561;SDS011;69047;53.358;-1.486;2023-06-19T11:10:34;9.13;;;4.05;;
54561;SDS011;69047;53.358;-1.486;2023-06-19T11:12:59;17.45;;;5.20;;
54561;SDS011;69047;53.358;-1.486;2023-06-19T11:15:31;24.40;;;5.95;;
54561;SDS011;69047;53.358;-1.486;2023-06-19T11:17:58;14.20;;;5.03;;
54561;SDS011;69047;53.358;-1.486;2023-06-19T11:20:24;13.77;;;4.40;;
54561;SDS011;69047;53.358;-1.486;2023-06-19T11:22:59;8.30;;;4.68;;
54561;SDS011;69047;53.358;-1.486;2023-06-19T11:25:35;29.02;;;4.88;;
54561;SDS011;69047;53.358;-1.486;2023-06-19T11:28:01;11.52;;;5.07;;
54561;SDS011;69047;53.358;-1.486;2023-06-19T11:30:31;10.63;;;5.20;;
54561;SDS011;69047;53.358;-1.486;2023-06-19T11:32:57;15.73;;;4.68;;
54561;SDS011;69047;53.358;-1.486;2023-06-19T11:35:22;13.85;;;4.78;;
54561;SDS011;69047;53.358;-1.486;2023-06-19T11:37:48;11.23;;;4.15;;
54561;SDS011;69047;53.358;-1.486;2023-06-19T11:40:13;12.15;;;4.32;;
54561;SDS011;69047;53.358;-1.486;2023-06-19T11:42:45;9.18;;;4.82;;
54561;SDS011;69047;53.358;-1.486;2023-06-19T11:45:11;8.77;;;4.45;;
54561;SDS011;69047;53.358;-1.486;2023-06-19T11:47:36;6.05;;;3.70;;
54561;SDS011;69047;53.358;-1.486;2023-06-19T11:50:03;10.90;;;4.88;;
54561;SDS011;69047;53.358;-1.486;2023-06-19T11:52:31;6.13;;;4.30;;
54561;SDS011;69047;53.358;-1.486;2023-06-19T11:54:56;12.07;;;4.72;;
54561;SDS011;69047;53.358;-1.486;2023-06-19T11:57:21;8.20;;;4.05;;
54561;SDS011;69047;53.358;-1.486;2023-06-19T11:59:47;12.52;;;4.50;;
54561;SDS011;69047;53.358;-1.486;2023-06-19T12:02:12;8.38;;;4.45;;
54561;SDS011;69047;53.358;-1.486;2023-06-19T12:04:38;9.45;;;4.70;;
54561;SDS011;69047;53.358;-1.486;2023-06-19T12:07:03;10.30;;;4.63;;
54561;SDS011;69047;53.358;-1.486;2023-06-19T12:09:29;10.32;;;3.83;;
54561;SDS011;69047;53.358;-1.486;2023-06-19T12:11:58;7.72;;;3.95;;
54561;SDS011;69047;53.358;-1.486;2023-06-19T12:14:23;7.50;;;4.00;;
54561;SDS011;69047;53.358;-1.486;2023-06-19T12:16:49;7.53;;;3.55;;
54561;SDS011;69047;53.358;-1.486;2023-06-19T12:19:15;7.13;;;3.58;;
54561;SDS011;69047;53.358;-1.486;2023-06-19T12:21:40;12.25;;;4.32;;
54561;SDS011;69047;53.358;-1.486;2023-06-19T12:24:06;9.35;;;3.75;;
54561;SDS011;69047;53.358;-1.486;2023-06-19T12:26:32;12.90;;;4.72;;
54561;SDS011;69047;53.358;-1.486;2023-06-19T12:29:01;9.32;;;4.43;;
54561;SDS011;69047;53.358;-1.486;2023-06-19T12:31:30;10.70;;;4.53;;
54561;SDS011;69047;53.358;-1.486;2023-06-19T12:33:56;6.38;;;4.28;;
54561;SDS011;69047;53.358;-1.486;2023-06-19T12:36:22;10.82;;;4.18;;
54561;SDS011;69047;53.358;-1.486;2023-06-19T12:38:48;10.35;;;3.55;;
54561;SDS011;69047;53.358;-1.486;2023-06-19T12:41:14;8.20;;;4.05;;
54561;SDS011;69047;53.358;-1.486;2023-06-19T12:43:40;7.25;;;3.67;;
54561;SDS011;69047;53.358;-1.486;2023-06-19T12:46:05;13.77;;;4.75;;
54561;SDS011;69047;53.358;-1.486;2023-06-19T12:48:31;7.63;;;4.32;;
54561;SDS011;69047;53.358;-1.486;2023-06-19T12:50:57;12.02;;;4.20;;
54561;SDS011;69047;53.358;-1.486;2023-06-19T12:53:22;7.32;;;2.88;;
54561;SDS011;69047;53.358;-1.486;2023-06-19T12:55:52;5.93;;;2.45;;
54561;SDS011;69047;53.358;-1.486;2023-06-19T12:58:18;5.57;;;1.90;;
54561;SDS011;69047;53.358;-1.486;2023-06-19T13:00:43;10.27;;;1.75;;
54561;SDS011;69047;53.358;-1.486;2023-06-19T13:03:09;14.48;;;1.50;;
54561;SDS011;69047;53.358;-1.486;2023-06-19T13:05:34;14.02;;;1.63;;
54561;SDS011;69047;53.358;-1.486;2023-06-19T13:08:00;9.38;;;1.58;;
54561;SDS011;69047;53.358;-1.486;2023-06-19T13:10:25;9.98;;;1.20;;
54561;SDS011;69047;53.358;-1.486;2023-06-19T13:12:50;7.40;;;1.58;;
54561;SDS011;69047;53.358;-1.486;2023-06-19T13:15:16;3.60;;;1.20;;
54561;SDS011;69047;53.358;-1.486;2023-06-19T13:17:42;2.38;;;0.77;;
54561;SDS011;69047;53.358;-1.486;2023-06-19T13:20:07;3.72;;;0.80;;
54561;SDS011;69047;53.358;-1.486;2023-06-19T13:22:33;0.95;;;0.63;;
54561;SDS011;69047;53.358;-1.486;2023-06-19T13:24:58;1.60;;;0.70;;
54561;SDS011;69047;53.358;-1.486;2023-06-19T13:27:23;3.30;;;0.80;;
54561;SDS011;69047;53.358;-1.486;2023-06-19T13:29:49;0.80;;;0.70;;
54561;SDS011;69047;53.358;-1.486;2023-06-19T13:32:15;1.60;;;0.40;;
54561;SDS011;69047;53.358;-1.486;2023-06-19T13:34:40;1.10;;;0.40;;
54561;SDS011;69047;53.358;-1.486;2023-06-19T13:37:06;0.70;;;0.28;;
54561;SDS011;69047;53.358;-1.486;2023-06-19T13:39:31;1.20;;;0.47;;
54561;SDS011;69047;53.358;-1.486;2023-06-19T13:41:57;1.25;;;0.85;;
54561;SDS011;69047;53.358;-1.486;2023-06-19T13:44:25;0.25;;;0.25;;
54561;SDS011;69047;53.358;-1.486;2023-06-19T13:46:50;0.30;;;0.30;;
54561;SDS011;69047;53.358;-1.486;2023-06-19T13:49:16;0.30;;;0.30;;
54561;SDS011;69047;53.358;-1.486;2023-06-19T13:51:41;1.63;;;0.20;;
54561;SDS011;69047;53.358;-1.486;2023-06-19T13:54:09;0.52;;;0.50;;
54561;SDS011;69047;53.358;-1.486;2023-06-19T13:56:34;0.43;;;0.40;;
54561;SDS011;69047;53.358;-1.486;2023-06-19T13:59:00;0.32;;;0.32;;
54561;SDS011;69047;53.358;-1.486;2023-06-19T14:01:25;0.30;;;0.30;;
54561;SDS011;69047;53.358;-1.486;2023-06-19T14:03:51;2.05;;;0.32;;
54561;SDS011;69047;53.358;-1.486;2023-06-19T14:06:16;0.32;;;0.25;;
54561;SDS011;69047;53.358;-1.486;2023-06-19T14:08:42;0.20;;;0.20;;
54561;SDS011;69047;53.358;-1.486;2023-06-19T14:11:08;0.57;;;0.30;;
54561;SDS011;69047;53.358;-1.486;2023-06-19T14:13:33;0.25;;;0.20;;
54561;SDS011;69047;53.358;-1.486;2023-06-19T14:15:58;0.38;;;0.28;;
54561;SDS011;69047;53.358;-1.486;2023-06-19T14:18:24;0.55;;;0.30;;
54561;SDS011;69047;53.358;-1.486;2023-06-19T14:20:49;0.25;;;0.25;;
54561;SDS011;69047;53.358;-1.486;2023-06-19T14:23:15;0.20;;;0.20;;
54561;SDS011;69047;53.358;-1.486;2023-06-19T14:25:40;0.20;;;0.20;;
54561;SDS011;69047;53.358;-1.486;2023-06-19T14:28:06;0.20;;;0.20;;
54561;SDS011;69047;53.358;-1.486;2023-06-19T14:30:31;0.20;;;0.20;;
54561;SDS011;69047;53.358;-1.486;2023-06-19T14:32:57;0.65;;;0.20;;
54561;SDS011;69047;53.358;-1.486;2023-06-19T14:35:22;1.10;;;0.28;;